Time;durP1;ratioP1;P1;durP2;ratioP2;P2;SDS_P1;SDS_P2;PMS_P1;PMS_P2;Temp;Humidity;BMP_temperature;BMP_pressure;BME280_temperature;BME280_humidity;BME280_pressure;Samples;Min_cycle;Max_cycle;Signal;HPM_P1;HPM_P2
2021/05/25 00:03:45;;;;;;;4.28;3.22;;;13.40;74.80;;;12.91;59.85;94559.81;5138321;27;20964;-84
2021/05/25 00:06:12;;;;;;;3.95;2.85;;;13.40;74.70;;;12.95;59.70;94554.91;5126125;28;20192;-83
2021/05/25 00:08:38;;;;;;;3.97;2.83;;;13.40;74.80;;;12.95;59.49;94555.75;5084867;28;20229;-85
2021/05/25 00:11:06;;;;;;;3.88;3.47;;;13.30;74.70;;;12.97;60.72;94552.88;5083150;28;20201;-83
2021/05/25 00:13:33;;;;;;;3.20;2.90;;;13.30;75.20;;;12.95;60.38;94558.38;5064607;28;20233;-84
2021/05/25 00:16:00;;;;;;;3.67;2.65;;;13.40;75.20;;;13.00;59.93;94559.53;5044010;28;20211;-84
2021/05/25 00:18:26;;;;;;;3.83;2.97;;;13.40;75.10;;;12.98;60.32;94557.13;5002557;28;20255;-84
2021/05/25 00:20:54;;;;;;;3.17;2.88;;;13.30;75.10;;;13.01;59.73;94559.34;4872737;28;20279;-83
2021/05/25 00:24:42;;;;;;;4.40;3.10;;;13.40;75.20;;;12.96;60.21;94556.53;5150492;27;20634;-84
2021/05/25 00:27:10;;;;;;;3.10;2.80;;;13.30;75.20;;;12.99;60.44;94564.03;5083552;28;20287;-84
2021/05/25 00:29:38;;;;;;;4.05;2.80;;;13.40;75.20;;;12.98;60.46;94552.66;5085905;28;20240;-84
2021/05/25 00:32:05;;;;;;;3.60;2.80;;;13.40;75.40;;;13.00;60.64;94564.81;5015035;28;20209;-84
2021/05/25 00:34:31;;;;;;;3.20;2.88;;;13.30;75.40;;;12.98;60.66;94559.78;5032568;28;20228;-84
2021/05/25 00:36:58;;;;;;;4.30;2.88;;;13.40;75.60;;;12.96;60.61;94567.06;4987886;28;20250;-84
2021/05/25 00:39:25;;;;;;;4.80;3.00;;;13.40;75.70;;;12.98;60.54;94573.72;4923245;29;20259;-85
2021/05/25 00:41:51;;;;;;;3.30;2.90;;;13.50;75.70;;;13.01;60.88;94574.31;4836221;29;20958;-84
2021/05/25 00:44:29;;;;;;;3.65;2.60;;;13.30;75.60;;;13.02;60.26;94568.84;5132157;27;20326;-85
2021/05/25 00:46:56;;;;;;;3.97;2.55;;;13.30;75.60;;;13.04;60.22;94574.69;5108192;28;20197;-84
2021/05/25 00:49:23;;;;;;;3.92;2.60;;;13.40;75.70;;;13.05;60.26;94568.41;5085388;28;21280;-83
2021/05/25 00:51:49;;;;;;;3.28;2.30;;;13.40;75.80;;;13.08;60.31;94577.72;5087678;28;20206;-84
2021/05/25 00:54:16;;;;;;;2.90;2.10;;;13.40;75.80;;;13.08;60.06;94582.97;5053298;28;20227;-84
2021/05/25 00:56:43;;;;;;;2.78;2.50;;;13.40;75.70;;;13.07;60.25;94582.19;5019041;28;20201;-84
2021/05/25 00:59:10;;;;;;;2.92;2.67;;;13.40;75.70;;;13.05;60.39;94578.13;4940050;28;20223;-84
2021/05/25 01:01:37;;;;;;;2.75;2.47;;;13.40;75.80;;;13.06;60.24;94575.31;4895278;29;20243;-84
2021/05/25 01:06:13;;;;;;;2.47;2.28;;;13.40;75.90;;;13.08;59.81;94583.78;5149643;27;20585;-84
2021/05/25 01:08:40;;;;;;;2.78;2.25;;;13.40;75.70;;;13.11;60.01;94593.88;5108755;28;20228;-84
2021/05/25 01:11:10;;;;;;;2.45;2.05;;;13.40;75.70;;;13.12;59.97;94590.25;5078247;28;20212;-84
2021/05/25 01:13:46;;;;;;;2.70;2.50;;;13.50;75.80;;;13.09;60.37;94588.03;5074802;28;20240;-84
2021/05/25 01:16:15;;;;;;;3.45;2.30;;;13.50;75.90;;;13.12;60.21;94584.16;5023191;28;20208;-84
2021/05/25 01:18:43;;;;;;;4.18;2.40;;;13.40;75.80;;;13.14;60.26;94587.38;4965375;28;20231;-82
2021/05/25 01:21:12;;;;;;;4.82;2.30;;;13.50;75.90;;;13.13;60.14;94573.41;4916363;29;20218;-83
2021/05/25 01:26:18;;;;;;;2.90;2.47;;;13.50;76.00;;;13.17;60.19;94588.78;5148341;27;20636;-84
2021/05/25 01:28:47;;;;;;;2.83;2.55;;;13.50;76.10;;;13.15;60.31;94581.09;5092855;28;20220;-84
2021/05/25 01:31:15;;;;;;;2.40;2.20;;;13.50;76.20;;;13.16;60.25;94574.81;5103375;28;20204;-85
2021/05/25 01:33:44;;;;;;;2.78;2.58;;;13.50;76.10;;;13.19;60.51;94568.31;5071191;28;20231;-83
2021/05/25 01:36:14;;;;;;;2.58;2.38;;;13.50;76.10;;;13.20;60.29;94573.34;5008694;28;20213;-83
2021/05/25 01:38:45;;;;;;;3.42;3.10;;;13.50;76.30;;;13.18;60.17;94569.31;4961361;28;20222;-84
2021/05/25 01:41:11;;;;;;;2.58;2.38;;;13.50;76.00;;;13.20;60.15;94570.72;4838682;29;20225;-84
2021/05/25 01:43:49;;;;;;;2.50;2.28;;;13.50;76.10;;;13.21;60.80;94576.81;5137773;27;20652;-84
2021/05/25 01:46:16;;;;;;;2.13;1.92;;;13.50;76.20;;;13.20;60.55;94572.56;5090144;28;20276;-84
2021/05/25 01:48:43;;;;;;;2.17;1.98;;;13.60;76.30;;;13.21;60.71;94582.88;5051702;28;20367;-83
2021/05/25 01:51:10;;;;;;;2.38;2.17;;;13.50;76.30;;;13.23;60.57;94580.84;5046725;28;20267;-83
2021/05/25 01:53:36;;;;;;;2.92;1.85;;;13.50;76.30;;;13.21;60.48;94576.81;4983255;28;20258;-83
2021/05/25 01:56:03;;;;;;;2.38;2.17;;;13.60;76.40;;;13.24;60.43;94581.63;4942847;29;20211;-83
2021/05/25 01:58:33;;;;;;;2.25;1.98;;;13.50;76.30;;;13.26;60.57;94580.38;4883297;29;20240;-83
2021/05/25 02:01:03;;;;;;;2.20;2.00;;;13.60;76.60;;;13.27;60.42;94582.00;4808177;29;20237;-83
2021/05/25 02:04:46;;;;;;;2.20;1.90;;;13.60;76.60;;;13.24;60.60;94579.81;5147726;27;20978;-84
2021/05/25 02:07:18;;;;;;;2.10;1.90;;;13.60;76.40;;;13.23;60.85;94582.63;5092341;28;20200;-84
2021/05/25 02:09:46;;;;;;;2.60;2.30;;;13.60;76.80;;;13.28;60.88;94588.88;5075852;28;20206;-84
2021/05/25 02:12:18;;;;;;;2.33;2.10;;;13.60;76.50;;;13.28;60.79;94588.88;5060173;28;20244;-83
2021/05/25 02:14:45;;;;;;;2.03;1.85;;;13.60;77.10;;;13.28;60.66;94596.78;5019963;28;20996;-83
2021/05/25 02:17:11;;;;;;;2.05;1.80;;;13.60;76.40;;;13.32;60.71;94599.78;4913666;29;20204;-84
2021/05/25 02:19:38;;;;;;;2.10;1.90;;;13.60;76.50;;;13.32;60.64;94602.44;4885927;28;20240;-84
2021/05/25 02:22:08;;;;;;;2.35;2.15;;;13.60;76.50;;;13.31;60.93;94592.91;4789637;29;20265;-85
2021/05/25 02:24:46;;;;;;;1.85;1.75;;;13.60;76.50;;;13.31;60.88;94602.66;5143459;27;20360;-84
2021/05/25 02:27:14;;;;;;;3.50;2.03;;;13.60;76.60;;;13.28;61.65;94609.94;5109263;28;20204;-84
2021/05/25 02:29:41;;;;;;;2.47;1.85;;;13.60;76.80;;;13.32;61.21;94617.41;5073940;28;20209;-85
2021/05/25 02:32:07;;;;;;;2.10;2.00;;;13.70;76.80;;;13.31;61.19;94621.09;5055563;28;20238;-83
2021/05/25 02:34:34;;;;;;;1.73;1.63;;;13.70;76.80;;;13.31;61.08;94613.97;4928909;28;20227;-84
2021/05/25 02:37:01;;;;;;;2.00;1.80;;;13.70;76.70;;;13.31;61.81;94627.16;4949412;28;20265;-84
2021/05/25 02:39:28;;;;;;;1.90;1.80;;;13.60;76.80;;;13.31;61.60;94624.50;4946061;28;20231;-84
2021/05/25 02:41:54;;;;;;;1.67;1.58;;;13.70;77.10;;;13.30;61.50;94625.53;4852165;29;20223;-83
2021/05/25 02:45:43;;;;;;;1.70;1.40;;;13.60;76.80;;;13.26;61.53;94627.00;5151095;27;20634;-82
2021/05/25 02:48:11;;;;;;;1.70;1.60;;;13.60;76.90;;;13.28;61.45;94633.66;5107550;28;20606;-83
2021/05/25 02:50:39;;;;;;;1.58;1.48;;;13.70;76.90;;;13.27;62.01;94636.50;5073371;28;20258;-84
2021/05/25 02:53:07;;;;;;;1.77;1.67;;;13.70;77.20;;;13.26;61.96;94651.50;5073211;28;20501;-84
2021/05/25 02:55:40;;;;;;;1.70;1.60;;;13.60;77.10;;;13.17;62.80;94650.16;5022992;28;20202;-84
2021/05/25 02:58:09;;;;;;;3.13;1.70;;;13.70;77.30;;;13.22;62.48;94654.75;4958227;28;20235;-84
2021/05/25 03:00:41;;;;;;;2.08;1.98;;;13.60;77.20;;;13.22;62.46;94662.66;4923904;29;20211;-84
2021/05/25 03:03:10;;;;;;;1.38;1.27;;;13.60;77.20;;;13.22;62.20;94665.28;4766084;29;20253;-83
2021/05/25 03:05:48;;;;;;;1.90;1.40;;;13.60;77.20;;;13.21;62.04;94666.34;5150158;27;20383;-84
2021/05/25 03:08:17;;;;;;;2.17;1.30;;;13.60;77.20;;;13.23;61.99;94670.38;5106537;28;20228;-83
2021/05/25 03:10:46;;;;;;;1.80;1.70;;;13.60;77.20;;;13.22;61.84;94668.75;5093734;28;20211;-84
2021/05/25 03:13:14;;;;;;;1.70;1.60;;;13.60;77.20;;;13.21;62.35;94664.50;5106631;28;20225;-84
2021/05/25 03:15:44;;;;;;;1.55;1.35;;;13.60;77.20;;;13.19;62.07;94656.00;5060453;28;20207;-83
2021/05/25 03:18:12;;;;;;;1.55;1.45;;;13.60;77.20;;;13.18;62.45;94659.66;4991715;28;20225;-83
2021/05/25 03:20:44;;;;;;;1.55;1.45;;;13.60;77.10;;;13.16;62.34;94655.63;4934086;28;20823;-85
2021/05/25 03:23:11;;;;;;;1.42;1.33;;;13.50;77.10;;;13.13;62.08;94660.31;4856706;29;20700;-84
2021/05/25 03:25:50;;;;;;;1.50;1.40;;;13.60;77.20;;;13.12;62.06;94673.66;5150712;27;20387;-84
2021/05/25 03:28:17;;;;;;;1.65;1.20;;;13.50;77.10;;;13.08;61.88;94668.03;5095659;28;20306;-83
2021/05/25 03:30:44;;;;;;;1.50;1.40;;;13.50;77.10;;;13.11;62.38;94683.41;5062014;28;20209;-83
2021/05/25 03:33:11;;;;;;;1.40;1.30;;;13.50;77.10;;;13.12;62.10;94684.22;5036188;28;20236;-84
2021/05/25 03:35:38;;;;;;;1.27;1.17;;;13.50;77.10;;;13.12;62.45;94686.84;4988045;28;20216;-83
2021/05/25 03:38:05;;;;;;;1.60;1.35;;;13.50;77.10;;;13.12;62.73;94689.47;4987920;28;20227;-84
2021/05/25 03:40:32;;;;;;;1.50;1.40;;;13.60;77.20;;;13.10;62.78;94686.28;4950230;28;20658;-83
2021/05/25 03:43:00;;;;;;;1.50;1.40;;;13.50;77.10;;;13.06;62.90;94687.69;4817119;29;20229;-84
2021/05/25 03:45:38;;;;;;;2.15;1.77;;;13.50;77.10;;;13.11;62.93;94693.16;5149550;27;20359;-84
2021/05/25 03:48:05;;;;;;;1.60;1.50;;;13.50;77.10;;;13.12;62.54;94700.84;5112714;27;20219;-84
2021/05/25 03:50:32;;;;;;;1.60;1.45;;;13.50;77.10;;;13.11;62.88;94701.84;5093994;28;20216;-85
2021/05/25 03:52:59;;;;;;;1.50;1.40;;;13.50;77.10;;;13.08;63.29;94710.16;5041848;28;20743;-85
2021/05/25 04:01:00;;;;;;;1.90;1.80;;;13.50;77.10;;;13.05;63.17;94722.94;4773895;29;20217;-82
2021/05/25 04:06:06;;;;;;;2.20;1.42;;;13.40;77.40;;;12.98;63.75;94733.53;5138320;27;20640;-84
2021/05/25 04:08:32;;;;;;;1.50;1.40;;;13.50;77.60;;;12.99;63.69;94727.25;5099309;28;20232;-84
2021/05/25 04:10:59;;;;;;;1.70;1.60;;;13.40;77.70;;;13.00;63.50;94743.81;5105019;28;20236;-84
2021/05/25 04:13:26;;;;;;;3.05;1.50;;;13.50;77.70;;;12.96;63.43;94733.75;5082370;28;20260;-85
2021/05/25 04:15:54;;;;;;;1.70;1.60;;;13.40;77.80;;;12.99;63.51;94735.13;5069944;28;20298;-85
2021/05/25 04:18:21;;;;;;;1.80;1.70;;;13.30;77.80;;;12.97;64.02;94743.25;4994321;28;20237;-84
2021/05/25 04:20:49;;;;;;;2.45;1.73;;;13.40;77.90;;;12.95;63.90;94737.38;4957020;28;20209;-84
2021/05/25 04:26:00;;;;;;;7.43;3.90;;;13.40;78.10;;;12.96;64.43;94746.06;5131617;27;20652;-84
2021/05/25 04:28:27;;;;;;;2.97;2.33;;;13.40;78.20;;;13.00;63.61;94754.34;5096374;28;20221;-84
2021/05/25 04:30:53;;;;;;;2.20;1.83;;;13.30;78.00;;;12.97;64.16;94755.59;5048746;28;21378;-84
2021/05/25 04:33:21;;;;;;;2.08;1.80;;;13.40;78.20;;;12.97;64.27;94763.50;5020396;28;20274;-84
2021/05/25 04:35:48;;;;;;;1.90;1.70;;;13.40;78.40;;;12.97;64.17;94769.59;5007876;28;20210;-84
2021/05/25 04:38:15;;;;;;;1.67;1.58;;;13.40;78.30;;;12.96;63.84;94759.25;4962139;28;20245;-84
2021/05/25 04:40:42;;;;;;;1.83;1.73;;;13.40;78.30;;;12.99;64.19;94766.72;4795860;29;20211;-85
2021/05/25 04:43:10;;;;;;;2.22;2.00;;;13.40;78.40;;;12.95;64.04;94770.78;4651946;30;22860;-84
2021/05/25 04:47:11;;;;;;;1.92;1.70;;;13.40;78.40;;;12.92;64.75;94789.66;5150563;27;20639;-84
2021/05/25 04:49:39;;;;;;;2.20;1.80;;;13.40;78.50;;;12.89;64.87;94777.72;5064705;28;20228;-84
2021/05/25 04:52:07;;;;;;;1.30;1.30;;;13.30;78.40;;;12.84;64.66;94805.66;5091002;28;20205;-83
2021/05/25 04:54:34;;;;;;;1.20;1.20;;;13.30;78.30;;;12.77;64.33;94789.91;5077168;28;20233;-84
2021/05/25 04:57:03;;;;;;;1.40;1.30;;;13.30;78.10;;;12.68;64.20;94802.47;5029914;28;20208;-83
2021/05/25 04:59:29;;;;;;;1.95;1.20;;;13.20;78.00;;;12.58;63.98;94816.06;5013397;28;20282;-83
2021/05/25 05:01:56;;;;;;;1.38;1.27;;;13.20;77.80;;;12.42;63.60;94830.47;4934700;29;20284;-84
2021/05/25 05:04:23;;;;;;;1.40;1.30;;;13.10;77.50;;;12.24;63.58;94822.41;4808113;29;20234;-83
2021/05/25 05:07:02;;;;;;;1.48;1.30;;;13.00;77.30;;;12.13;63.39;94829.09;5130209;27;20716;-84
2021/05/25 05:09:29;;;;;;;2.00;1.17;;;12.90;77.20;;;12.05;63.44;94838.00;5096981;28;20255;-85
2021/05/25 05:11:56;;;;;;;1.33;1.20;;;12.70;76.80;;;11.94;63.44;94835.94;5052587;28;20661;-85
2021/05/25 05:14:22;;;;;;;1.40;1.30;;;12.70;76.90;;;11.90;63.36;94839.97;5052527;28;20224;-86
2021/05/25 05:16:49;;;;;;;1.20;1.20;;;12.60;76.80;;;11.85;63.45;94853.72;4962245;28;20203;-85
2021/05/25 05:19:16;;;;;;;1.38;1.27;;;12.60;76.90;;;11.81;63.16;94857.75;4910892;29;20236;-85
2021/05/25 05:21:42;;;;;;;2.20;1.20;;;12.50;77.00;;;11.81;63.09;94858.56;4818400;29;20221;-85
2021/05/25 05:24:09;;;;;;;1.15;1.15;;;12.40;77.00;;;11.78;63.10;94845.84;4805210;29;20235;-85
2021/05/25 05:28:29;;;;;;;1.38;1.27;;;12.30;77.10;;;11.76;62.91;94861.00;5139217;27;20581;-86
2021/05/25 05:30:56;;;;;;;4.70;1.40;;;12.30;77.10;;;11.79;63.07;94859.78;5082843;28;20522;-85
2021/05/25 05:33:23;;;;;;;1.20;1.10;;;12.30;77.30;;;11.79;62.86;94854.53;5088312;28;20292;-86
2021/05/25 05:35:50;;;;;;;2.00;1.13;;;12.30;77.20;;;11.83;62.88;94859.19;5087276;28;20206;-84
2021/05/25 05:38:17;;;;;;;1.30;1.20;;;12.30;77.10;;;11.79;62.88;94873.75;5026545;28;20339;-85
2021/05/25 05:40:44;;;;;;;1.20;1.10;;;12.30;77.10;;;11.79;62.79;94872.91;4975203;28;20209;-85
2021/05/25 05:43:11;;;;;;;1.23;1.10;;;12.30;77.10;;;11.80;63.02;94887.69;4973577;28;20231;-86
2021/05/25 05:48:27;;;;;;;1.25;1.15;;;12.20;77.00;;;11.85;62.44;94880.00;5141208;27;20655;-85
2021/05/25 05:50:55;;;;;;;1.15;1.15;;;12.20;77.20;;;11.88;62.34;94884.88;5103495;28;20201;-85
2021/05/25 05:53:22;;;;;;;1.55;1.27;;;12.30;77.20;;;11.93;62.25;94871.13;5083517;28;20277;-85
2021/05/25 05:55:49;;;;;;;1.33;1.23;;;12.20;77.20;;;11.97;62.10;94877.63;5113173;28;20669;-87
2021/05/25 05:58:16;;;;;;;1.30;1.20;;;12.20;77.10;;;12.02;62.10;94869.94;5081518;28;20223;-86
2021/05/25 06:00:44;;;;;;;1.30;1.20;;;12.30;77.20;;;12.09;62.01;94876.00;4976593;28;20223;-85
2021/05/25 06:03:12;;;;;;;1.25;1.15;;;12.30;77.30;;;12.13;62.13;94881.66;4823045;29;20239;-84
2021/05/25 06:05:40;;;;;;;1.38;1.27;;;12.40;77.30;;;12.20;61.98;94890.38;4727663;29;20224;-85
2021/05/25 06:08:15;;;;;;;1.30;1.20;;;12.40;77.30;;;12.31;61.97;94896.84;5136049;27;20727;-86
2021/05/25 06:10:48;;;;;;;1.23;1.10;;;12.50;77.30;;;12.36;61.77;94907.56;5070736;28;20320;-86
2021/05/25 06:13:15;;;;;;;1.33;1.20;;;12.50;77.00;;;12.42;61.22;94904.13;5037985;28;20280;-83
2021/05/25 06:15:42;;;;;;;1.23;1.20;;;12.60;76.50;;;12.41;61.25;94910.38;5044590;28;20197;-84
2021/05/25 06:18:09;;;;;;;1.30;1.20;;;12.60;76.40;;;12.45;60.83;94908.16;4962515;28;20620;-83
2021/05/25 06:20:35;;;;;;;1.30;1.20;;;12.70;76.50;;;12.55;60.91;94916.47;4841270;29;20216;-83
2021/05/25 06:23:02;;;;;;;1.20;1.10;;;12.70;76.50;;;12.60;60.95;94916.66;4720049;30;20239;-86
2021/05/25 06:28:11;;;;;;;1.35;1.10;;;12.80;76.60;;;12.76;60.70;94915.41;5118518;27;20554;-85
2021/05/25 06:30:38;;;;;;;1.65;1.30;;;12.90;76.60;;;12.81;60.35;94915.59;5099009;28;20208;-85
2021/05/25 06:33:05;;;;;;;1.48;1.30;;;12.90;76.70;;;12.87;60.50;94919.25;5067578;28;21869;-84
2021/05/25 06:35:33;;;;;;;1.42;1.33;;;13.10;76.50;;;12.92;60.31;94921.28;5005113;28;20215;-84
2021/05/25 06:38:02;;;;;;;2.10;1.50;;;13.20;76.60;;;12.99;60.38;94906.25;4966301;28;20241;-82
2021/05/25 06:40:29;;;;;;;2.75;1.23;;;13.10;76.40;;;13.05;60.46;94909.88;4876514;29;20209;-81
2021/05/25 06:42:56;;;;;;;1.23;1.13;;;13.20;76.40;;;13.15;60.14;94917.38;4710381;29;20704;-82
2021/05/25 06:45:25;;;;;;;1.30;1.20;;;13.30;76.20;;;13.19;60.35;94911.47;4528904;30;20248;-82
2021/05/25 06:48:04;;;;;;;2.03;1.33;;;13.30;76.30;;;13.28;59.96;94904.13;5138798;27;20792;-82
2021/05/25 06:50:31;;;;;;;1.20;1.10;;;13.40;76.10;;;13.32;59.78;94902.72;5084524;28;20193;-82
2021/05/25 06:52:59;;;;;;;1.00;1.00;;;13.50;75.80;;;13.39;59.69;94902.69;5094548;28;20232;-81
2021/05/25 06:55:25;;;;;;;1.00;1.00;;;13.50;75.90;;;13.47;59.36;94913.00;5074290;28;20211;-83
2021/05/25 06:57:52;;;;;;;1.48;1.20;;;13.60;75.80;;;13.49;58.90;94913.63;4963917;28;20228;-83
2021/05/25 07:00:19;;;;;;;1.10;1.05;;;13.60;75.40;;;13.53;59.38;94916.63;4917753;28;20209;-83
2021/05/25 07:02:45;;;;;;;1.10;1.00;;;13.70;75.50;;;13.60;58.80;94920.84;4743798;29;20243;-81
2021/05/25 07:05:12;;;;;;;2.15;0.90;;;13.70;75.30;;;13.63;59.20;94916.97;4530408;30;24080;-81
2021/05/25 07:07:50;;;;;;;0.90;0.90;;;13.70;75.30;;;13.70;58.70;94922.22;5130530;27;20336;-81
2021/05/25 07:10:16;;;;;;;1.20;1.05;;;13.80;75.10;;;13.71;58.41;94913.31;5083259;28;20258;-81
2021/05/25 07:12:43;;;;;;;1.25;1.15;;;13.90;75.00;;;13.71;58.12;94923.84;5065114;28;20225;-82
2021/05/25 07:15:10;;;;;;;1.40;1.30;;;14.00;75.30;;;13.72;57.97;94926.28;5020771;28;20211;-81
2021/05/25 07:17:56;;;;;;;1.63;1.20;;;13.90;74.30;;;13.70;57.78;94936.22;4971514;28;20234;-81
2021/05/25 07:20:25;;;;;;;2.33;1.10;;;13.90;73.80;;;13.70;58.02;94949.38;4847218;29;20230;-82
2021/05/25 07:22:54;;;;;;;1.17;1.00;;;13.90;74.10;;;13.72;57.79;94944.72;4690781;30;20240;-81
2021/05/25 07:25:47;;;;;;;2.55;1.20;;;14.00;73.70;;;13.70;56.55;94941.47;5123592;27;20813;-81
2021/05/25 07:28:14;;;;;;;1.35;1.02;;;14.00;73.20;;;13.70;57.34;94924.88;5077662;28;20276;-82
2021/05/25 07:30:42;;;;;;;1.13;1.02;;;14.00;73.50;;;13.74;56.72;94932.16;5075530;28;20207;-83
2021/05/25 07:33:08;;;;;;;2.58;1.00;;;14.00;73.40;;;13.77;56.92;94929.06;5066820;28;20229;-82
2021/05/25 07:35:34;;;;;;;5.00;1.30;;;14.00;73.20;;;13.77;55.83;94933.56;5049046;28;20235;-82
2021/05/25 07:38:01;;;;;;;1.50;1.00;;;14.10;72.70;;;13.79;56.13;94928.84;5020392;28;20657;-82
2021/05/25 07:40:28;;;;;;;1.15;1.02;;;14.00;73.00;;;13.83;56.62;94935.34;4921233;28;20553;-81
2021/05/25 07:42:54;;;;;;;1.50;1.40;;;14.00;73.00;;;13.88;55.00;94938.16;4718369;29;21376;-82
2021/05/25 07:47:12;;;;;;;1.35;1.25;;;14.10;72.70;;;13.92;55.25;94927.97;5149657;27;20555;-82
2021/05/25 07:49:39;;;;;;;1.75;1.30;;;14.20;72.50;;;13.96;54.90;94944.19;5083708;28;20226;-82
2021/05/25 07:52:06;;;;;;;2.10;1.30;;;14.10;71.90;;;13.96;53.97;94946.84;5072638;28;20211;-83
2021/05/25 07:54:32;;;;;;;2.35;1.10;;;14.20;71.70;;;13.98;54.66;94937.69;5040337;28;20231;-82
2021/05/25 07:56:59;;;;;;;2.60;1.23;;;14.20;71.70;;;14.00;54.36;94929.56;5026449;28;20215;-83
2021/05/25 07:59:26;;;;;;;2.80;1.10;;;14.20;71.50;;;14.02;54.27;94938.88;4992902;28;20227;-82
2021/05/25 08:01:53;;;;;;;1.77;1.30;;;14.20;71.10;;;14.00;53.56;94938.28;4895748;29;20605;-82
2021/05/25 08:04:20;;;;;;;1.33;1.23;;;14.20;70.40;;;14.03;53.73;94945.75;4817952;29;20238;-83
2021/05/25 08:06:58;;;;;;;1.73;1.40;;;14.20;70.70;;;13.99;52.63;94954.31;5150771;27;20378;-82
2021/05/25 08:09:25;;;;;;;1.60;1.50;;;14.20;70.30;;;13.97;52.07;94957.16;5086398;27;20227;-82
2021/05/25 08:11:52;;;;;;;2.05;1.80;;;14.20;69.60;;;13.92;53.02;94951.72;5099614;28;20205;-82
2021/05/25 08:14:19;;;;;;;1.70;1.45;;;14.20;70.10;;;13.91;53.66;94956.19;5055960;28;20219;-81
2021/05/25 08:16:45;;;;;;;1.52;1.38;;;14.20;70.50;;;13.97;53.45;94951.09;5043529;28;20211;-81
2021/05/25 08:19:48;;;;;;;2.60;1.70;;;14.20;70.30;;;13.97;52.97;94954.53;5027179;28;20231;-83
2021/05/25 08:22:05;;;;;;;1.35;1.25;;;14.20;70.00;;;13.95;51.97;94950.47;4886770;29;20208;-82
2021/05/25 08:27:25;;;;;;;2.70;2.03;;;14.20;69.50;;;13.97;53.28;94969.53;5148978;27;20641;-82
2021/05/25 08:30:10;;;;;;;12.05;8.25;;;14.20;70.10;;;14.02;52.95;94959.97;5067161;28;20211;-81
2021/05/25 08:32:37;;;;;;;5.20;4.20;;;14.20;69.80;;;14.09;52.96;94960.72;5075698;28;20307;-81
2021/05/25 08:35:06;;;;;;;2.42;2.00;;;14.30;70.10;;;14.14;53.09;94951.38;5048469;28;20199;-81
2021/05/25 08:37:33;;;;;;;3.58;2.15;;;14.30;70.10;;;14.14;51.20;94975.13;4959002;28;20650;-82
2021/05/25 08:40:04;;;;;;;6.38;4.07;;;14.40;69.60;;;14.16;51.44;94960.69;4863115;29;20436;-81
2021/05/25 08:42:31;;;;;;;4.43;3.63;;;14.40;69.00;;;14.15;51.94;94963.56;4899777;29;20208;-80
2021/05/25 08:45:23;;;;;;;4.18;2.45;;;14.40;69.30;;;14.18;50.59;94961.28;5150843;27;20619;-82
2021/05/25 08:47:53;;;;;;;2.63;2.10;;;14.50;68.40;;;14.15;50.61;94953.00;5107264;28;20224;-83
2021/05/25 08:50:33;;;;;;;2.45;1.98;;;14.40;68.30;;;14.10;50.15;94953.66;5095408;28;20295;-81
2021/05/25 08:53:02;;;;;;;3.30;1.73;;;14.40;68.00;;;14.13;50.58;94941.84;5079623;28;20237;-82
2021/05/25 08:55:31;;;;;;;4.20;3.33;;;14.50;68.40;;;14.22;51.10;94948.47;4984610;28;20296;-81
2021/05/25 08:57:58;;;;;;;2.67;2.47;;;14.40;68.60;;;14.32;51.13;94951.47;4938183;28;20724;-82
2021/05/25 09:00:25;;;;;;;2.05;1.90;;;14.50;68.40;;;14.41;50.29;94947.56;4836049;29;20667;-81
2021/05/25 09:04:06;;;;;;;3.25;1.40;;;14.50;68.20;;;14.52;50.45;94955.78;5135274;27;20991;-82
2021/05/25 09:06:38;;;;;;;2.80;1.65;;;14.60;68.20;;;14.54;50.05;94966.94;5081489;28;20297;-82
2021/05/25 09:09:13;;;;;;;5.45;3.70;;;14.70;67.60;;;14.49;49.43;94962.31;5080203;28;20266;-82
2021/05/25 09:12:03;;;;;;;3.72;2.40;;;14.70;67.40;;;14.41;49.71;94958.09;5030545;28;20207;-82
2021/05/25 09:14:35;;;;;;;2.45;1.95;;;14.70;67.40;;;14.39;48.31;94965.41;5003723;28;20234;-81
2021/05/25 09:17:22;;;;;;;4.00;2.45;;;14.70;66.70;;;14.32;48.62;94971.75;4980519;28;20209;-81
2021/05/25 09:19:59;;;;;;;4.72;3.30;;;14.60;66.70;;;14.28;49.37;94978.47;4827378;29;20230;-81
2021/05/25 09:25:19;;;;;;;13.85;8.38;;;14.60;66.90;;;14.27;49.56;94969.78;5150707;27;20609;-82
2021/05/25 09:30:48;;;;;;;7.95;4.60;;;14.60;67.20;;;14.46;49.98;94986.47;5053226;28;20265;-82
2021/05/25 09:33:17;;;;;;;3.33;2.38;;;14.60;67.50;;;14.53;50.62;94981.16;5059897;28;20221;-82
2021/05/25 09:35:47;;;;;;;5.13;2.97;;;14.60;67.70;;;14.64;50.08;94992.84;5025901;28;20201;-83
2021/05/25 09:38:20;;;;;;;5.45;3.53;;;14.70;67.80;;;14.70;49.31;94986.75;4954456;28;20234;-82
2021/05/25 09:40:52;;;;;;;4.13;1.50;;;14.80;67.40;;;14.74;48.65;94982.63;4729677;29;20223;-82
2021/05/25 09:45:29;;;;;;;2.25;2.00;;;14.80;66.80;;;14.79;49.15;94945.81;5147711;27;20964;-81
2021/05/25 09:47:55;;;;;;;4.13;2.17;;;14.90;67.20;;;14.87;47.98;94961.41;5103867;28;20217;-81
2021/05/25 09:50:25;;;;;;;5.32;3.10;;;15.00;66.60;;;14.98;48.76;94959.88;5077349;28;20726;-81
2021/05/25 09:53:19;;;;;;;3.78;1.83;;;15.00;66.90;;;15.09;49.34;94962.81;5015210;28;20217;-81
2021/05/25 09:56:00;;;;;;;1.65;1.20;;;15.10;67.40;;;15.16;48.15;94966.19;4909675;28;20301;-81
2021/05/25 09:58:33;;;;;;;1.55;1.25;;;15.20;65.70;;;15.16;47.66;94960.91;4812600;29;20246;-80
2021/05/25 10:01:01;;;;;;;2.00;1.10;;;15.20;66.00;;;15.22;47.50;94965.31;4730894;30;20218;-80
2021/05/25 10:03:55;;;;;;;4.05;1.30;;;15.30;66.00;;;15.24;46.87;94973.84;5122384;27;20549;-81
2021/05/25 10:06:21;;;;;;;3.35;1.40;;;15.40;65.60;;;15.18;47.00;94951.75;5108380;28;20257;-80
2021/05/25 10:08:49;;;;;;;1.88;1.25;;;15.40;65.60;;;15.24;47.29;94943.97;5083281;28;20221;-81
2021/05/25 10:11:18;;;;;;;1.60;1.30;;;15.40;65.80;;;15.31;47.51;94950.78;5056585;28;20448;-80
2021/05/25 10:13:46;;;;;;;1.50;1.40;;;15.40;65.80;;;15.30;46.36;94946.53;5015507;28;20288;-80
2021/05/25 10:16:23;;;;;;;3.50;1.38;;;15.40;64.90;;;15.22;45.84;94944.19;4923830;28;20308;-79
2021/05/25 10:19:02;;;;;;;2.53;1.30;;;15.40;64.30;;;15.14;45.61;94969.06;4782315;29;20251;-80
2021/05/25 10:21:30;;;;;;;1.77;1.10;;;15.50;64.60;;;15.08;46.15;94966.50;4638806;30;20229;-83
2021/05/25 10:24:18;;;;;;;1.73;1.20;;;15.40;64.50;;;14.93;44.78;94967.66;5123118;27;20580;-79
2021/05/25 10:26:45;;;;;;;1.98;1.13;;;15.40;63.90;;;14.81;45.58;94969.38;5076534;28;20290;-79
2021/05/25 10:29:11;;;;;;;1.88;1.30;;;15.30;64.00;;;14.69;45.84;94975.34;5081648;28;20229;-79
2021/05/25 10:31:43;;;;;;;1.80;1.20;;;15.20;64.00;;;14.60;45.93;94973.16;5056003;28;20712;-80
2021/05/25 10:34:15;;;;;;;2.53;1.05;;;15.10;63.80;;;14.56;46.17;94976.25;5044522;28;20228;-79
2021/05/25 10:36:54;;;;;;;4.00;1.20;;;15.00;64.90;;;14.52;46.30;94982.97;4949175;28;20216;-79
2021/05/25 10:39:40;;;;;;;2.70;1.50;;;15.00;64.20;;;14.49;46.17;94983.41;4836671;29;20228;-80
2021/05/25 10:42:44;;;;;;;1.85;1.10;;;14.90;64.30;;;14.41;45.81;95005.59;5143900;27;20563;-80
2021/05/25 10:45:30;;;;;;;2.45;1.30;;;14.90;64.10;;;14.34;45.87;95011.94;5066840;28;20204;-79
2021/05/25 10:48:05;;;;;;;3.40;1.45;;;14.80;63.90;;;14.21;44.82;95008.34;5093037;28;20221;-79
2021/05/25 10:50:37;;;;;;;2.25;1.15;;;14.70;63.20;;;14.17;45.84;95009.81;5069540;28;20298;-79
2021/05/25 10:53:05;;;;;;;2.22;1.20;;;14.70;63.60;;;14.15;46.38;95024.22;5029409;28;20231;-80
2021/05/25 10:55:44;;;;;;;3.83;1.40;;;14.60;63.90;;;14.09;45.94;95015.31;5006791;28;21269;-80
2021/05/25 10:58:31;;;;;;;3.70;1.52;;;14.60;63.80;;;14.12;46.56;95009.59;4885268;28;20234;-79
2021/05/25 11:03:45;;;;;;;3.33;1.35;;;14.60;64.30;;;14.22;46.22;95015.25;5124523;27;20546;-80
2021/05/25 11:06:30;;;;;;;1.80;1.20;;;14.50;64.30;;;14.28;46.55;95037.34;5054545;28;20268;-81
2021/05/25 11:09:26;;;;;;;2.35;1.50;;;14.60;64.40;;;14.27;46.09;95029.63;5006663;28;20263;-80
2021/05/25 11:12:16;;;;;;;1.20;1.10;;;14.50;64.30;;;14.23;46.69;95037.97;4992195;28;20218;-79
2021/05/25 11:15:18;;;;;;;2.10;1.40;;;14.50;64.30;;;14.21;46.62;95026.03;4947334;28;20229;-80
2021/05/25 11:17:47;;;;;;;3.35;1.45;;;14.50;64.40;;;14.20;46.81;95027.84;4808854;29;20266;-80
2021/05/25 11:20:54;;;;;;;2.45;1.38;;;14.50;64.40;;;14.24;46.95;95033.50;4675055;30;20220;-80